Time;durP1;ratioP1;P1;durP2;ratioP2;P2;SDS_P1;SDS_P2;PMS_P1;PMS_P2;Temp;Humidity;BMP_temperature;BMP_pressure;BME280_temperature;BME280_humidity;BME280_pressure;Samples;Min_cycle;Max_cycle;Signal;HPM_P1;HPM_P2
2022/01/18 00:01:32;;;;;;;2.30;1.50;;;;;;;;;;5042577;28;20036;-61
2022/01/18 00:03:57;;;;;;;2.70;1.40;;;;;;;;;;5042094;28;20061;-61
2022/01/18 00:06:23;;;;;;;1.88;1.40;;;;;;;;;;5019464;28;20292;-60
2022/01/18 00:08:48;;;;;;;2.10;1.30;;;;;;;;;;5017348;28;20028;-61
2022/01/18 00:11:15;;;;;;;2.03;1.25;;;;;;;;;;5040198;28;20278;-61
2022/01/18 00:13:43;;;;;;;2.83;1.48;;;;;;;;;;5042185;28;20107;-61
2022/01/18 00:16:26;;;;;;;1.90;1.20;;;;;;;;;;5042158;28;20186;-61
2022/01/18 00:18:53;;;;;;;1.85;1.30;;;;;;;;;;5042323;28;20387;-61
2022/01/18 00:21:29;;;;;;;2.13;1.20;;;;;;;;;;5041967;28;20110;-61
2022/01/18 00:23:57;;;;;;;3.30;1.30;;;;;;;;;;5042455;28;20013;-61
2022/01/18 00:26:25;;;;;;;2.25;1.40;;;;;;;;;;5019840;28;20028;-61
2022/01/18 00:28:55;;;;;;;2.05;1.23;;;;;;;;;;5017217;28;20021;-61
2022/01/18 00:31:40;;;;;;;2.00;1.35;;;;;;;;;;5041101;28;20029;-61
2022/01/18 00:39:33;;;;;;;1.95;1.30;;;;;;;;;;5042021;28;20025;-61
2022/01/18 00:41:58;;;;;;;2.63;1.27;;;;;;;;;;5042174;28;20032;-61
2022/01/18 00:44:23;;;;;;;1.88;1.02;;;;;;;;;;5042102;28;20429;-61
2022/01/18 00:46:48;;;;;;;2.53;1.20;;;;;;;;;;5012873;28;20030;-61
2022/01/18 00:49:14;;;;;;;1.87;1.10;;;;;;;;;;5024974;28;20086;-61
2022/01/18 00:51:40;;;;;;;2.20;1.10;;;;;;;;;;5045653;28;20377;-61
2022/01/18 00:54:06;;;;;;;2.85;1.35;;;;;;;;;;5045532;28;20185;-61
2022/01/18 00:56:32;;;;;;;2.42;1.25;;;;;;;;;;5046158;28;20730;-60
2022/01/18 00:58:58;;;;;;;2.15;1.23;;;;;;;;;;5045912;28;20014;-60
2022/01/18 01:01:24;;;;;;;2.20;1.40;;;;;;;;;;5045535;28;20033;-61
2022/01/18 01:03:51;;;;;;;3.05;1.27;;;;;;;;;;5045268;28;20563;-61
2022/01/18 01:06:16;;;;;;;1.83;1.10;;;;;;;;;;5025263;28;20018;-61
2022/01/18 01:08:41;;;;;;;2.72;1.40;;;;;;;;;;5019066;28;20030;-61
2022/01/18 01:11:07;;;;;;;1.60;1.00;;;;;;;;;;5042107;28;20083;-61
2022/01/18 01:13:32;;;;;;;1.65;1.13;;;;;;;;;;5045517;28;20263;-63
2022/01/18 01:16:13;;;;;;;1.60;1.10;;;;;;;;;;5045318;28;20024;-61
2022/01/18 01:42:28;;;;;;;2.38;1.17;;;;;;;;;;5044178;28;20550;-60
2022/01/18 01:44:55;;;;;;;1.90;1.10;;;;;;;;;;5044083;28;20032;-61
2022/01/18 01:47:22;;;;;;;1.55;1.00;;;;;;;;;;5008518;28;20022;-61
2022/01/18 01:49:50;;;;;;;1.88;1.30;;;;;;;;;;5030345;28;20051;-61
2022/01/18 01:52:15;;;;;;;1.70;1.17;;;;;;;;;;5044155;28;20021;-61
2022/01/18 01:54:40;;;;;;;1.75;1.10;;;;;;;;;;5044021;28;20748;-61
2022/01/18 01:57:06;;;;;;;2.07;1.13;;;;;;;;;;5043871;28;20487;-61
2022/01/18 01:59:31;;;;;;;1.58;0.88;;;;;;;;;;5043503;28;20338;-61
2022/01/18 02:01:57;;;;;;;1.80;1.00;;;;;;;;;;5043654;28;20723;-61
2022/01/18 02:04:22;;;;;;;2.00;1.20;;;;;;;;;;5043517;28;20060;-60
2022/01/18 02:06:47;;;;;;;1.58;1.02;;;;;;;;;;5015807;28;20828;-61
2022/01/18 02:09:12;;;;;;;1.80;1.20;;;;;;;;;;5004616;28;20105;-61
2022/01/18 02:11:38;;;;;;;2.13;1.07;;;;;;;;;;5023804;28;20861;-61
2022/01/18 02:14:05;;;;;;;2.03;1.53;;;;;;;;;;5023785;28;20666;-61
2022/01/18 02:22:01;;;;;;;1.80;1.05;;;;;;;;;;5002961;28;20503;-61
2022/01/18 02:24:26;;;;;;;1.50;0.98;;;;;;;;;;5014707;28;20055;-61
2022/01/18 02:26:52;;;;;;;1.60;0.90;;;;;;;;;;5009095;28;20312;-61
2022/01/18 02:29:17;;;;;;;1.97;1.03;;;;;;;;;;5005748;28;20261;-61
2022/01/18 02:31:42;;;;;;;2.38;1.35;;;;;;;;;;5043234;28;20757;-60
2022/01/18 02:34:09;;;;;;;1.60;1.10;;;;;;;;;;5025489;28;20489;-61
2022/01/18 02:36:34;;;;;;;1.63;1.00;;;;;;;;;;5043390;28;20086;-60
2022/01/18 02:38:59;;;;;;;1.65;1.00;;;;;;;;;;5043604;28;20048;-61
2022/01/18 02:41:28;;;;;;;2.92;1.10;;;;;;;;;;5042586;28;20048;-60
2022/01/18 02:43:55;;;;;;;1.92;1.20;;;;;;;;;;5043114;28;20025;-60
2022/01/18 02:46:21;;;;;;;2.47;0.90;;;;;;;;;;5023158;28;20034;-60
2022/01/18 02:48:46;;;;;;;1.67;1.02;;;;;;;;;;5003280;28;20116;-61
2022/01/18 02:51:11;;;;;;;2.37;0.90;;;;;;;;;;5037100;28;20103;-61
2022/01/18 02:53:57;;;;;;;1.65;1.10;;;;;;;;;;5042658;28;20303;-61
2022/01/18 02:56:24;;;;;;;1.73;1.00;;;;;;;;;;5042841;28;20021;-61
2022/01/18 02:58:49;;;;;;;2.40;1.20;;;;;;;;;;5042949;28;20028;-61
2022/01/18 03:03:58;;;;;;;2.22;1.17;;;;;;;;;;5042617;28;20055;-61
2022/01/18 03:06:23;;;;;;;1.40;0.80;;;;;;;;;;5003973;28;20030;-60
2022/01/18 03:08:49;;;;;;;1.30;0.90;;;;;;;;;;5003126;28;21002;-60
2022/01/18 03:11:14;;;;;;;1.97;1.00;;;;;;;;;;5036625;28;20776;-61
2022/01/18 03:13:39;;;;;;;1.67;1.00;;;;;;;;;;5042525;28;20305;-61
2022/01/18 03:16:04;;;;;;;2.23;0.90;;;;;;;;;;5042505;28;20302;-61
2022/01/18 03:18:30;;;;;;;1.63;1.05;;;;;;;;;;5042550;28;20248;-61
2022/01/18 03:20:55;;;;;;;1.40;0.80;;;;;;;;;;5042012;28;20036;-61
2022/01/18 03:23:22;;;;;;;1.40;0.90;;;;;;;;;;5042206;28;20855;-60
2022/01/18 03:26:00;;;;;;;1.60;0.90;;;;;;;;;;5031667;28;20601;-61
2022/01/18 03:28:25;;;;;;;1.42;0.98;;;;;;;;;;5002590;28;20022;-61
2022/01/18 03:30:54;;;;;;;1.50;0.90;;;;;;;;;;5030268;28;20023;-61
2022/01/18 03:33:22;;;;;;;1.40;0.80;;;;;;;;;;5041983;28;20017;-60
2022/01/18 03:35:50;;;;;;;1.45;0.90;;;;;;;;;;5041919;28;20514;-61
2022/01/18 03:38:15;;;;;;;1.17;0.70;;;;;;;;;;5042028;28;20107;-61
2022/01/18 03:40:40;;;;;;;2.45;0.95;;;;;;;;;;5041899;28;20116;-60
2022/01/18 03:43:07;;;;;;;1.58;0.95;;;;;;;;;;5041940;28;20419;-60
2022/01/18 03:45:39;;;;;;;1.90;0.90;;;;;;;;;;5035548;28;20342;-61
2022/01/18 03:48:07;;;;;;;1.50;0.98;;;;;;;;;;5002340;28;20186;-60
2022/01/18 03:50:32;;;;;;;2.28;1.00;;;;;;;;;;5024755;28;20033;-60
2022/01/18 03:52:58;;;;;;;1.60;0.93;;;;;;;;;;5040890;28;20029;-60
2022/01/18 03:55:23;;;;;;;2.07;0.90;;;;;;;;;;5041111;28;20667;-60
2022/01/18 03:57:48;;;;;;;1.55;0.88;;;;;;;;;;5041532;28;20769;-60
2022/01/18 04:00:18;;;;;;;1.70;1.10;;;;;;;;;;5041341;28;20028;-60
2022/01/18 04:02:44;;;;;;;1.50;0.90;;;;;;;;;;5041610;28;20053;-61
2022/01/18 04:05:09;;;;;;;1.58;0.95;;;;;;;;;;5041081;28;20080;-61
2022/01/18 04:07:34;;;;;;;1.30;0.73;;;;;;;;;;5001721;28;20036;-61
2022/01/18 04:10:00;;;;;;;1.25;0.77;;;;;;;;;;4990919;28;20047;-60
2022/01/18 04:12:25;;;;;;;0.87;0.70;;;;;;;;;;5021294;28;20040;-60
2022/01/18 04:14:50;;;;;;;1.27;0.70;;;;;;;;;;5021687;28;20300;-61
2022/01/18 04:17:50;;;;;;;1.67;1.00;;;;;;;;;;5021437;28;20359;-60
2022/01/18 04:28:30;;;;;;;1.55;0.90;;;;;;;;;;5012936;28;20515;-61
2022/01/18 04:30:56;;;;;;;1.10;0.70;;;;;;;;;;5015852;28;20053;-61
2022/01/18 04:33:21;;;;;;;1.07;0.70;;;;;;;;;;5021691;28;20029;-61
2022/01/18 04:35:46;;;;;;;1.40;0.70;;;;;;;;;;5021382;28;20300;-61
2022/01/18 04:38:11;;;;;;;0.87;0.67;;;;;;;;;;5029626;28;20325;-61
2022/01/18 04:40:40;;;;;;;1.00;0.70;;;;;;;;;;5041314;28;20277;-61
2022/01/18 04:48:28;;;;;;;1.20;0.90;;;;;;;;;;5001936;28;20287;-62
2022/01/18 04:50:58;;;;;;;1.13;0.70;;;;;;;;;;5029494;28;20021;-62
2022/01/18 04:53:23;;;;;;;1.20;0.70;;;;;;;;;;5040942;28;20342;-62
2022/01/18 04:55:55;;;;;;;0.93;0.60;;;;;;;;;;5040965;28;20116;-62
2022/01/18 04:58:21;;;;;;;1.55;0.80;;;;;;;;;;5041075;28;20589;-62
2022/01/18 05:00:46;;;;;;;0.70;0.60;;;;;;;;;;5023422;28;20100;-62
2022/01/18 05:03:11;;;;;;;1.42;0.80;;;;;;;;;;5040887;28;20021;-62
2022/01/18 05:05:37;;;;;;;1.30;0.70;;;;;;;;;;5034465;28;20412;-62
2022/01/18 05:08:05;;;;;;;0.77;0.50;;;;;;;;;;5001498;28;20025;-62
2022/01/18 05:10:30;;;;;;;0.90;0.63;;;;;;;;;;5023138;28;20419;-62
2022/01/18 05:12:57;;;;;;;0.80;0.63;;;;;;;;;;5041074;28;20095;-63
2022/01/18 05:18:12;;;;;;;2.53;0.80;;;;;;;;;;5002590;28;20017;-63
2022/01/18 05:23:03;;;;;;;1.10;0.63;;;;;;;;;;5008254;28;20022;-62
2022/01/18 05:25:29;;;;;;;1.60;0.80;;;;;;;;;;5002945;28;20397;-63
2022/01/18 05:27:55;;;;;;;1.33;0.70;;;;;;;;;;5001454;28;20041;-62
2022/01/18 05:30:20;;;;;;;1.00;0.60;;;;;;;;;;5004070;28;21600;-62
2022/01/18 05:32:45;;;;;;;1.30;0.60;;;;;;;;;;4969149;28;20041;-63
2022/01/18 05:35:11;;;;;;;1.10;0.70;;;;;;;;;;5007078;28;20034;-63
2022/01/18 05:37:36;;;;;;;1.23;0.70;;;;;;;;;;5005981;28;20268;-61
2022/01/18 05:40:01;;;;;;;1.30;0.60;;;;;;;;;;5005303;28;20848;-63
2022/01/18 05:42:26;;;;;;;1.33;0.67;;;;;;;;;;5004995;28;20650;-62
2022/01/18 05:44:52;;;;;;;1.33;0.67;;;;;;;;;;5004925;28;20280;-65
2022/01/18 05:47:17;;;;;;;1.33;0.80;;;;;;;;;;5004376;28;20272;-62
2022/01/18 05:49:42;;;;;;;1.10;0.70;;;;;;;;;;4988418;28;20025;-66
2022/01/18 05:52:07;;;;;;;1.60;0.87;;;;;;;;;;5011788;28;20264;-65
2022/01/18 05:54:33;;;;;;;1.60;0.60;;;;;;;;;;5012404;28;20330;-63
2022/01/18 05:56:58;;;;;;;1.30;0.70;;;;;;;;;;5005438;28;20428;-62
2022/01/18 05:59:33;;;;;;;0.77;0.60;;;;;;;;;;5007373;28;20307;-62
2022/01/18 06:02:02;;;;;;;1.08;0.60;;;;;;;;;;5007204;28;20284;-60
2022/01/18 06:07:12;;;;;;;1.58;0.70;;;;;;;;;;5003682;28;20047;-61
2022/01/18 06:09:37;;;;;;;1.45;0.80;;;;;;;;;;5011733;28;20499;-61
2022/01/18 06:12:03;;;;;;;1.42;0.70;;;;;;;;;;5023733;28;20408;-62
2022/01/18 06:14:28;;;;;;;1.20;0.80;;;;;;;;;;5024002;28;20040;-63
2022/01/18 06:16:53;;;;;;;0.90;0.50;;;;;;;;;;5023674;28;20029;-61
2022/01/18 06:19:18;;;;;;;1.63;0.70;;;;;;;;;;5024066;28;20314;-62
2022/01/18 06:21:44;;;;;;;1.42;0.70;;;;;;;;;;5023979;28;20272;-62
2022/01/18 06:24:11;;;;;;;1.13;0.60;;;;;;;;;;5024066;28;20461;-60
2022/01/18 06:26:37;;;;;;;1.38;0.70;;;;;;;;;;5024133;28;20264;-64
2022/01/18 06:29:02;;;;;;;1.23;0.80;;;;;;;;;;5006898;28;20018;-62
2022/01/18 06:31:27;;;;;;;2.28;0.63;;;;;;;;;;5022336;28;20606;-62
2022/01/18 06:33:53;;;;;;;0.82;0.50;;;;;;;;;;5023869;28;20087;-61
2022/01/18 06:36:18;;;;;;;1.60;0.70;;;;;;;;;;5022556;28;20037;-61
2022/01/18 06:38:43;;;;;;;1.48;0.82;;;;;;;;;;5024233;28;20265;-60
2022/01/18 06:41:08;;;;;;;1.10;0.60;;;;;;;;;;5010293;28;20032;-59
2022/01/18 06:43:34;;;;;;;1.87;0.80;;;;;;;;;;5005055;28;20277;-61
2022/01/18 06:46:00;;;;;;;1.40;0.60;;;;;;;;;;5017980;28;20737;-61
2022/01/18 06:48:25;;;;;;;1.33;0.80;;;;;;;;;;5013764;28;20272;-60
2022/01/18 06:50:50;;;;;;;2.07;0.80;;;;;;;;;;5023879;28;20032;-60
2022/01/18 06:53:15;;;;;;;1.17;0.60;;;;;;;;;;5023937;28;20288;-59
2022/01/18 06:55:41;;;;;;;1.42;0.68;;;;;;;;;;5023369;28;20415;-60
2022/01/18 06:58:06;;;;;;;1.10;0.70;;;;;;;;;;5021617;28;20021;-61
2022/01/18 07:00:31;;;;;;;1.83;0.80;;;;;;;;;;5018430;28;21114;-61
2022/01/18 07:02:56;;;;;;;2.63;0.80;;;;;;;;;;5016766;28;20479;-60
2022/01/18 07:05:22;;;;;;;1.00;0.60;;;;;;;;;;5018992;28;20382;-60
2022/01/18 07:07:47;;;;;;;0.97;0.70;;;;;;;;;;5021187;28;20092;-58
2022/01/18 07:10:12;;;;;;;1.35;0.70;;;;;;;;;;5005250;28;20284;-61
2022/01/18 07:12:38;;;;;;;2.25;0.68;;;;;;;;;;5022992;28;20025;-60
2022/01/18 07:15:03;;;;;;;1.73;0.77;;;;;;;;;;5023019;28;20073;-61
2022/01/18 07:17:29;;;;;;;2.30;0.80;;;;;;;;;;5014308;28;20346;-61
2022/01/18 07:19:54;;;;;;;1.10;0.60;;;;;;;;;;5007798;28;20134;-60
2022/01/18 07:22:19;;;;;;;1.03;0.60;;;;;;;;;;5013623;28;20725;-60
2022/01/18 07:24:46;;;;;;;1.40;0.63;;;;;;;;;;5017933;28;20311;-60
2022/01/18 07:27:12;;;;;;;1.85;0.90;;;;;;;;;;5014732;28;20267;-59
2022/01/18 07:29:37;;;;;;;1.35;0.80;;;;;;;;;;5015437;28;20022;-60
2022/01/18 07:32:03;;;;;;;2.33;0.75;;;;;;;;;;5004288;28;20064;-60
2022/01/18 07:34:31;;;;;;;1.60;0.68;;;;;;;;;;4990701;28;20091;-60
2022/01/18 07:36:56;;;;;;;1.50;0.70;;;;;;;;;;5004127;28;20084;-60
2022/01/18 07:39:21;;;;;;;2.73;0.70;;;;;;;;;;5004431;28;20026;-59
2022/01/18 07:41:47;;;;;;;1.63;0.90;;;;;;;;;;5005336;28;20774;-59
2022/01/18 07:44:12;;;;;;;1.47;0.93;;;;;;;;;;5003697;28;21024;-60
2022/01/18 07:46:37;;;;;;;1.40;0.70;;;;;;;;;;5003144;28;20267;-60
2022/01/18 07:49:02;;;;;;;1.97;0.80;;;;;;;;;;5004992;28;20463;-60
2022/01/18 07:51:28;;;;;;;1.97;0.90;;;;;;;;;;5007162;28;20344;-60
2022/01/18 07:53:53;;;;;;;1.73;1.03;;;;;;;;;;5005822;28;20152;-60
2022/01/18 07:56:18;;;;;;;1.33;0.70;;;;;;;;;;4989181;28;20276;-60
2022/01/18 07:58:43;;;;;;;1.53;0.70;;;;;;;;;;4996585;28;20983;-60
2022/01/18 08:01:08;;;;;;;1.63;0.70;;;;;;;;;;5006450;28;20483;-60
2022/01/18 08:03:34;;;;;;;2.00;0.80;;;;;;;;;;5010486;28;20363;-59
2022/01/18 08:05:59;;;;;;;1.83;0.80;;;;;;;;;;5020924;28;20287;-60
2022/01/18 08:08:26;;;;;;;2.28;0.90;;;;;;;;;;5023127;28;20685;-59
2022/01/18 08:10:51;;;;;;;1.88;0.80;;;;;;;;;;5023146;28;20021;-59
2022/01/18 08:13:17;;;;;;;2.40;0.80;;;;;;;;;;5022959;28;20076;-60
2022/01/18 08:15:44;;;;;;;1.30;0.73;;;;;;;;;;5024676;28;20071;-60
2022/01/18 08:18:10;;;;;;;1.27;0.70;;;;;;;;;;5026074;28;20107;-60
2022/01/18 08:20:35;;;;;;;1.08;0.60;;;;;;;;;;5031947;28;20074;-59
2022/01/18 08:23:00;;;;;;;1.63;0.80;;;;;;;;;;5041555;28;20025;-60
2022/01/18 08:25:26;;;;;;;1.58;0.90;;;;;;;;;;5040447;28;20100;-59
2022/01/18 08:27:51;;;;;;;1.57;0.70;;;;;;;;;;5026209;28;20104;-59
2022/01/18 08:30:19;;;;;;;2.08;1.00;;;;;;;;;;5041449;28;20264;-59
2022/01/18 08:32:45;;;;;;;1.75;1.00;;;;;;;;;;5041792;28;20045;-59
2022/01/18 08:35:11;;;;;;;1.00;0.60;;;;;;;;;;5041170;28;20051;-59
2022/01/18 08:37:36;;;;;;;1.60;0.70;;;;;;;;;;5034943;28;20713;-59
2022/01/18 08:40:02;;;;;;;2.40;1.00;;;;;;;;;;5041030;28;20268;-61
2022/01/18 08:42:27;;;;;;;1.33;0.70;;;;;;;;;;5041513;28;20267;-59
2022/01/18 08:44:52;;;;;;;2.07;1.00;;;;;;;;;;5038580;28;20559;-57
2022/01/18 08:47:18;;;;;;;1.42;0.90;;;;;;;;;;5025887;28;20279;-59
2022/01/18 08:49:43;;;;;;;1.92;0.80;;;;;;;;;;5041043;28;20032;-59
2022/01/18 08:52:08;;;;;;;2.70;0.90;;;;;;;;;;5041749;28;20098;-59
2022/01/18 08:54:34;;;;;;;3.28;1.08;;;;;;;;;;5041230;28;20033;-59
2022/01/18 08:56:59;;;;;;;2.95;0.90;;;;;;;;;;5041306;28;20040;-59
2022/01/18 08:59:25;;;;;;;3.05;1.00;;;;;;;;;;5041141;28;20029;-59
2022/01/18 09:01:50;;;;;;;2.75;1.17;;;;;;;;;;5041190;28;20483;-60
2022/01/18 09:04:15;;;;;;;2.93;0.90;;;;;;;;;;5041192;28;20452;-60
2022/01/18 09:06:41;;;;;;;1.73;0.93;;;;;;;;;;5030687;28;20276;-60
2022/01/18 09:09:07;;;;;;;2.30;0.90;;;;;;;;;;5037231;28;20013;-60
2022/01/18 09:11:32;;;;;;;2.35;0.98;;;;;;;;;;5024784;28;20458;-59
2022/01/18 09:13:58;;;;;;;2.20;1.13;;;;;;;;;;5044525;28;20032;-60
2022/01/18 09:16:23;;;;;;;2.93;1.23;;;;;;;;;;5044562;28;20541;-60
2022/01/18 09:18:50;;;;;;;2.25;0.90;;;;;;;;;;5044598;28;20669;-60
2022/01/18 09:21:15;;;;;;;2.80;1.17;;;;;;;;;;5044389;28;20440;-60
2022/01/18 09:23:42;;;;;;;2.42;1.00;;;;;;;;;;5044694;28;20021;-60
2022/01/18 09:26:07;;;;;;;3.65;1.20;;;;;;;;;;5039008;28;20614;-60
2022/01/18 09:28:32;;;;;;;3.20;1.10;;;;;;;;;;5034448;28;20028;-60
2022/01/18 09:30:58;;;;;;;2.05;0.90;;;;;;;;;;5044850;28;20116;-60
2022/01/18 09:33:23;;;;;;;2.25;1.10;;;;;;;;;;5044615;28;20063;-60
2022/01/18 09:35:48;;;;;;;2.20;1.10;;;;;;;;;;5044818;28;20059;-60
2022/01/18 09:38:13;;;;;;;2.80;1.00;;;;;;;;;;5044810;28;20263;-60
2022/01/18 09:40:39;;;;;;;2.67;1.25;;;;;;;;;;5044952;28;20271;-60
2022/01/18 09:43:09;;;;;;;2.85;1.10;;;;;;;;;;5044625;28;20757;-60
2022/01/18 09:45:35;;;;;;;2.08;1.00;;;;;;;;;;5042416;28;20086;-60
2022/01/18 09:48:00;;;;;;;2.45;0.98;;;;;;;;;;5011221;28;20491;-60
2022/01/18 09:50:31;;;;;;;2.90;1.20;;;;;;;;;;5043823;28;20131;-59
2022/01/18 09:52:57;;;;;;;2.75;1.27;;;;;;;;;;5044623;28;20843;-60
2022/01/18 09:55:26;;;;;;;2.03;0.82;;;;;;;;;;5044666;28;20257;-60
2022/01/18 09:57:52;;;;;;;2.88;1.13;;;;;;;;;;5044639;28;20168;-60
2022/01/18 10:00:18;;;;;;;2.35;1.05;;;;;;;;;;5044658;28;20088;-60
2022/01/18 10:02:43;;;;;;;2.53;1.40;;;;;;;;;;5044485;28;20044;-60
2022/01/18 10:05:18;;;;;;;3.60;1.40;;;;;;;;;;5029984;28;20119;-60
2022/01/18 10:07:43;;;;;;;3.25;1.10;;;;;;;;;;5010164;28;20462;-60
2022/01/18 10:10:09;;;;;;;3.45;1.02;;;;;;;;;;5043939;28;20078;-60
2022/01/18 10:12:34;;;;;;;2.58;1.38;;;;;;;;;;5043990;28;20028;-59
2022/01/18 10:15:00;;;;;;;3.13;1.23;;;;;;;;;;5044135;28;20036;-60
2022/01/18 10:17:38;;;;;;;2.22;1.15;;;;;;;;;;5044227;28;20797;-60
2022/01/18 10:20:17;;;;;;;2.25;1.00;;;;;;;;;;5043587;28;20517;-59
2022/01/18 10:22:48;;;;;;;2.38;1.10;;;;;;;;;;5044258;28;20098;-59
2022/01/18 10:25:20;;;;;;;2.70;1.05;;;;;;;;;;5024185;28;20662;-60
2022/01/18 10:27:47;;;;;;;3.35;1.17;;;;;;;;;;5009256;28;20559;-59
2022/01/18 10:30:19;;;;;;;2.47;1.00;;;;;;;;;;5034905;28;20014;-59
2022/01/18 10:33:00;;;;;;;2.55;1.10;;;;;;;;;;5025785;28;20100;-60
2022/01/18 10:35:25;;;;;;;;;;;;;;;;;;5044877;28;20217;-62
2022/01/18 10:37:50;;;;;;;3.00;1.05;;;;;;;;;;5043744;28;20259;-60
2022/01/18 10:40:16;;;;;;;2.28;0.80;;;;;;;;;;5043700;28;20025;-61
2022/01/18 10:42:42;;;;;;;2.40;1.13;;;;;;;;;;5043925;28;20560;-61
2022/01/18 10:45:28;;;;;;;2.15;1.10;;;;;;;;;;5030058;28;20068;-60
2022/01/18 10:47:57;;;;;;;1.67;1.08;;;;;;;;;;5011018;28;20017;-60
2022/01/18 10:50:23;;;;;;;2.55;1.50;;;;;;;;;;5043726;28;20115;-61
2022/01/18 10:52:49;;;;;;;2.40;1.08;;;;;;;;;;5043782;28;20136;-61
2022/01/18 10:55:19;;;;;;;1.95;0.95;;;;;;;;;;5043568;28;20128;-62
2022/01/18 10:57:44;;;;;;;3.22;1.05;;;;;;;;;;5043490;28;20024;-60
2022/01/18 11:00:17;;;;;;;1.88;1.10;;;;;;;;;;5043667;28;20183;-62
2022/01/18 11:02:43;;;;;;;3.97;1.40;;;;;;;;;;5033072;28;20044;-61
2022/01/18 11:05:13;;;;;;;2.45;1.10;;;;;;;;;;5019513;28;20513;-61
2022/01/18 11:07:38;;;;;;;3.85;1.00;;;;;;;;;;5039600;28;20506;-61
2022/01/18 11:10:05;;;;;;;2.80;1.08;;;;;;;;;;5043252;28;20476;-61
2022/01/18 11:12:31;;;;;;;3.15;1.25;;;;;;;;;;5043639;28;20108;-61
2022/01/18 11:15:04;;;;;;;2.92;1.20;;;;;;;;;;5022214;28;20049;-60
2022/01/18 11:17:38;;;;;;;2.42;0.93;;;;;;;;;;5040193;28;20411;-60
2022/01/18 11:20:05;;;;;;;2.17;1.13;;;;;;;;;;5022016;28;20455;-62
2022/01/18 11:22:30;;;;;;;1.92;0.80;;;;;;;;;;5031648;28;20052;-61
2022/01/18 11:24:56;;;;;;;2.03;0.85;;;;;;;;;;5043132;28;20055;-61
2022/01/18 11:27:22;;;;;;;2.60;0.90;;;;;;;;;;5027751;28;20025;-62
2022/01/18 11:29:47;;;;;;;2.53;1.00;;;;;;;;;;5024004;28;20516;-61
2022/01/18 11:32:12;;;;;;;2.20;0.80;;;;;;;;;;5033376;28;20321;-61
2022/01/18 11:34:49;;;;;;;4.40;1.17;;;;;;;;;;5032868;28;20049;-61
2022/01/18 11:37:15;;;;;;;2.13;0.85;;;;;;;;;;5037353;28;20352;-61
2022/01/18 11:39:40;;;;;;;2.65;1.00;;;;;;;;;;5042763;28;20071;-61
2022/01/18 11:42:06;;;;;;;1.87;0.90;;;;;;;;;;5042748;28;20012;-62
2022/01/18 11:44:31;;;;;;;2.33;0.82;;;;;;;;;;5042741;28;20320;-61
2022/01/18 11:46:57;;;;;;;2.35;1.10;;;;;;;;;;5030828;28;20407;-62
2022/01/18 11:49:23;;;;;;;2.15;0.90;;;;;;;;;;5038115;28;20024;-61
2022/01/18 11:51:57;;;;;;;2.10;0.90;;;;;;;;;;5042442;28;20029;-62
2022/01/18 11:54:31;;;;;;;1.73;1.10;;;;;;;;;;5042550;28;20029;-61
2022/01/18 11:56:56;;;;;;;1.95;0.98;;;;;;;;;;5042557;28;20166;-61
2022/01/18 11:59:26;;;;;;;1.83;0.98;;;;;;;;;;5042377;28;20138;-62
2022/01/18 12:01:51;;;;;;;3.22;1.20;;;;;;;;;;5042466;28;20137;-61
2022/01/18 12:04:37;;;;;;;2.10;1.00;;;;;;;;;;5042272;28;20124;-61
2022/01/18 12:07:02;;;;;;;2.83;1.10;;;;;;;;;;5002768;28;20029;-61
2022/01/18 12:09:37;;;;;;;1.52;0.77;;;;;;;;;;5034220;28;20130;-61
2022/01/18 12:12:04;;;;;;;2.53;0.93;;;;;;;;;;5042080;28;20017;-61
2022/01/18 12:14:33;;;;;;;3.47;1.13;;;;;;;;;;5034186;28;20037;-61
2022/01/18 12:17:18;;;;;;;2.38;0.93;;;;;;;;;;5034090;28;20442;-61
2022/01/18 12:19:44;;;;;;;1.52;0.88;;;;;;;;;;5041467;28;20041;-61
2022/01/18 12:22:10;;;;;;;2.08;0.90;;;;;;;;;;5041855;28;20028;-61
2022/01/18 12:24:35;;;;;;;1.52;0.85;;;;;;;;;;5042143;28;20025;-62
2022/01/18 12:27:20;;;;;;;2.35;1.05;;;;;;;;;;5029606;28;20400;-61
2022/01/18 12:30:14;;;;;;;3.25;1.05;;;;;;;;;;5039909;28;20072;-61
2022/01/18 12:32:56;;;;;;;1.95;1.13;;;;;;;;;;5020341;28;20033;-62
2022/01/18 12:35:23;;;;;;;2.70;1.02;;;;;;;;;;5026720;28;20030;-61
2022/01/18 12:37:48;;;;;;;1.73;0.77;;;;;;;;;;5038727;28;20508;-62
2022/01/18 12:40:26;;;;;;;1.58;1.00;;;;;;;;;;5015607;28;20013;-65
2022/01/18 12:45:28;;;;;;;1.90;1.02;;;;;;;;;;5045870;28;20021;-62
2022/01/18 12:47:55;;;;;;;1.70;1.00;;;;;;;;;;5012960;28;20076;-61
2022/01/18 12:50:22;;;;;;;1.95;0.80;;;;;;;;;;5041243;28;20502;-61
2022/01/18 12:52:48;;;;;;;3.38;0.80;;;;;;;;;;5026511;28;20040;-60
2022/01/18 12:55:32;;;;;;;2.85;0.80;;;;;;;;;;5031593;28;20041;-61
2022/01/18 12:57:58;;;;;;;2.20;0.90;;;;;;;;;;5022033;28;20024;-63
2022/01/18 13:00:23;;;;;;;2.38;1.10;;;;;;;;;;5035013;28;20029;-61
2022/01/18 13:02:48;;;;;;;3.10;0.80;;;;;;;;;;5033502;28;20380;-61
2022/01/18 13:05:14;;;;;;;2.28;1.05;;;;;;;;;;5025907;28;20041;-61
2022/01/18 13:07:51;;;;;;;2.23;1.13;;;;;;;;;;5024730;28;20022;-62
2022/01/18 13:10:17;;;;;;;2.67;0.95;;;;;;;;;;5025209;28;20268;-61
2022/01/18 13:12:44;;;;;;;3.93;1.30;;;;;;;;;;5009199;28;20028;-61
2022/01/18 13:15:09;;;;;;;1.90;0.98;;;;;;;;;;5027403;28;20302;-62
2022/01/18 13:23:21;;;;;;;3.17;0.95;;;;;;;;;;5024860;28;20381;-62
2022/01/18 13:25:47;;;;;;;3.03;1.17;;;;;;;;;;5025446;28;20018;-61
2022/01/18 13:28:12;;;;;;;2.33;1.02;;;;;;;;;;5025354;28;20037;-61
2022/01/18 13:30:39;;;;;;;2.15;1.10;;;;;;;;;;5026174;28;20017;-62
2022/01/18 13:33:06;;;;;;;2.28;1.00;;;;;;;;;;5024822;28;20025;-62
2022/01/18 13:35:32;;;;;;;3.10;1.10;;;;;;;;;;5024635;28;20118;-61
2022/01/18 13:37:58;;;;;;;3.15;1.20;;;;;;;;;;5027980;28;20029;-61
2022/01/18 13:40:24;;;;;;;2.75;1.10;;;;;;;;;;5028543;28;20013;-62
2022/01/18 13:42:50;;;;;;;1.88;1.10;;;;;;;;;;5028983;28;20131;-61
2022/01/18 13:45:19;;;;;;;3.03;1.13;;;;;;;;;;5028306;28;20594;-61
2022/01/18 13:47:49;;;;;;;1.90;0.98;;;;;;;;;;5026226;28;20033;-61
2022/01/18 13:50:33;;;;;;;2.45;0.98;;;;;;;;;;5040339;28;20029;-61
2022/01/18 13:53:12;;;;;;;2.42;1.17;;;;;;;;;;5032792;28;20028;-61
2022/01/18 13:55:42;;;;;;;3.17;1.10;;;;;;;;;;5032521;28;20064;-61
2022/01/18 13:58:08;;;;;;;;;;;;;;;;;;5032412;28;20017;-61
2022/01/18 14:00:33;;;;;;;2.17;1.08;;;;;;;;;;5027297;28;19939;-61
2022/01/18 14:02:58;;;;;;;3.07;0.90;;;;;;;;;;5025589;28;20024;-60
2022/01/18 14:05:24;;;;;;;1.57;0.90;;;;;;;;;;5025606;28;20665;-60
2022/01/18 14:07:59;;;;;;;2.10;1.20;;;;;;;;;;5026827;28;20280;-60
2022/01/18 14:10:25;;;;;;;2.08;1.10;;;;;;;;;;5025462;28;20152;-62
2022/01/18 14:12:50;;;;;;;2.33;1.10;;;;;;;;;;5025300;28;20041;-61
2022/01/18 14:15:33;;;;;;;2.10;1.00;;;;;;;;;;5008950;28;20037;-62
2022/01/18 14:18:02;;;;;;;2.13;1.10;;;;;;;;;;5026990;28;20075;-62
2022/01/18 14:20:30;;;;;;;2.25;1.02;;;;;;;;;;5025644;28;20033;-61
2022/01/18 14:22:56;;;;;;;2.10;1.17;;;;;;;;;;5027639;28;20087;-61
2022/01/18 14:25:26;;;;;;;2.50;1.15;;;;;;;;;;5009957;28;20068;-62
2022/01/18 14:27:52;;;;;;;3.10;1.25;;;;;;;;;;5025580;28;20032;-60
2022/01/18 14:30:20;;;;;;;3.22;1.20;;;;;;;;;;5028640;28;20479;-60
2022/01/18 14:32:50;;;;;;;2.33;1.05;;;;;;;;;;5025539;28;20036;-61
2022/01/18 14:35:16;;;;;;;3.83;1.25;;;;;;;;;;5024588;28;20029;-62
2022/01/18 14:37:47;;;;;;;4.47;1.10;;;;;;;;;;5024690;28;20032;-61
2022/01/18 14:40:12;;;;;;;2.00;1.10;;;;;;;;;;5024781;28;20041;-60
2022/01/18 14:42:44;;;;;;;2.40;1.00;;;;;;;;;;5024464;28;20013;-61
2022/01/18 14:47:38;;;;;;;2.28;0.93;;;;;;;;;;5027207;28;20411;-61
2022/01/18 14:50:05;;;;;;;1.95;1.08;;;;;;;;;;5025127;28;20024;-60
2022/01/18 14:52:30;;;;;;;2.47;1.00;;;;;;;;;;5024227;28;20028;-61
2022/01/18 14:54:56;;;;;;;2.63;1.05;;;;;;;;;;5024352;28;20018;-61
2022/01/18 14:57:21;;;;;;;2.67;0.90;;;;;;;;;;5024179;28;20626;-61
2022/01/18 14:59:46;;;;;;;1.70;0.80;;;;;;;;;;5024352;28;20017;-61
2022/01/18 15:02:12;;;;;;;2.58;0.90;;;;;;;;;;5023426;28;20025;-60
2022/01/18 15:04:37;;;;;;;2.55;1.13;;;;;;;;;;5024021;28;20512;-60
2022/01/18 15:07:03;;;;;;;3.22;1.63;;;;;;;;;;5004757;28;20083;-61
2022/01/18 15:09:29;;;;;;;1.60;0.98;;;;;;;;;;5023385;28;20043;-61
2022/01/18 15:11:58;;;;;;;2.13;1.30;;;;;;;;;;5021477;28;20420;-61
2022/01/18 15:14:23;;;;;;;2.90;1.20;;;;;;;;;;5022798;28;20071;-61
2022/01/18 15:16:48;;;;;;;3.38;0.95;;;;;;;;;;5043504;28;20056;-61
2022/01/18 15:19:13;;;;;;;2.73;1.10;;;;;;;;;;5043434;28;20031;-61
2022/01/18 15:21:39;;;;;;;2.80;1.23;;;;;;;;;;5034345;28;20060;-63
2022/01/18 15:24:04;;;;;;;2.10;0.97;;;;;;;;;;5052734;28;20308;-62
2022/01/18 15:26:30;;;;;;;1.55;0.93;;;;;;;;;;5037347;28;20271;-60
2022/01/18 15:28:55;;;;;;;1.88;1.08;;;;;;;;;;5025106;28;20475;-61
2022/01/18 15:31:20;;;;;;;3.07;1.10;;;;;;;;;;5007026;28;20029;-61
2022/01/18 15:33:45;;;;;;;2.60;1.13;;;;;;;;;;5025028;28;20264;-61
2022/01/18 15:36:11;;;;;;;1.83;0.97;;;;;;;;;;5026587;28;20974;-61
2022/01/18 15:38:36;;;;;;;1.98;1.27;;;;;;;;;;5026219;28;20641;-62
2022/01/18 15:41:02;;;;;;;1.52;0.85;;;;;;;;;;5025162;28;20022;-62
2022/01/18 15:43:27;;;;;;;2.13;0.60;;;;;;;;;;5023793;28;20108;-61
2022/01/18 15:45:52;;;;;;;1.97;1.20;;;;;;;;;;5025781;28;20260;-61
2022/01/18 15:48:17;;;;;;;2.30;1.10;;;;;;;;;;5025191;28;20834;-61
2022/01/18 15:50:43;;;;;;;1.30;0.80;;;;;;;;;;5023707;28;20863;-59
2022/01/18 15:53:08;;;;;;;2.07;1.00;;;;;;;;;;5023341;28;20078;-60